Di Ya Na Si Ku Er Te — A8VN8 — position and weather

sailwx.info

Track history (hours):
 
Tides and Currents Weather Stations Pressure Air Temp Water Temp Dewpoint Dewpoint Depression Visibility Wind Speed Wind Dir Waves Ship Positions

Di Ya Na Si Ku Er Te

Last reported at 2018-May-29 17:56 UTC. Time now 2018-Jul-18 14:37 UTC.
Position N 01°17' E 104°20'.
Warning: this ship's position is 49 days out of date.

Length 229 m; draft 12.7 m.

Type: Cargo ship. MMSI: 636092025.

Date/timePositionNaut miles runAvg speedWind from/ knotsBaromVisibWave heightAir tempDewpointWater temp
2018-May-29 17:56N 01°17' E 104°20'614.6
2018-May-29 17:30N 01°17' E 104°13'814.3
2018-May-29 16:59N 01°15' E 104°06'613.6
2018-May-29 16:30N 01°14' E 103°60'713.1
2018-May-29 16:00N 01°12' E 103°54'612.7
2018-May-29 15:30N 01°09' E 103°48'612.5
2018-May-29 15:00N 01°05' E 103°43'611.2
2018-May-29 14:30N 01°03' E 103°38'612.8
2018-May-29 14:00N 01°07' E 103°33'612.5
2018-May-29 13:30N 01°10' E 103°27'612.0
2018-May-29 13:00N 01°13' E 103°22'712.5
2018-May-29 12:27N 01°17' E 103°17'  
Track history (hours):
 
Tides and Currents Weather Stations Pressure Air Temp Water Temp Dewpoint Dewpoint Depression Visibility Wind Speed Wind Dir Waves Ship Positions

Di Ya Na Si Ku Er Te

Last reported at 2018-May-29 17:56 UTC. Time now 2018-Jul-18 14:37 UTC.
Position N 01°17' E 104°20'.
Warning: this ship's position is 49 days out of date.

Length 229 m; draft 12.7 m.

Type: Cargo ship. MMSI: 636092025.

Date/timePositionNaut miles runAvg speedWind from/ knotsBaromVisibWave heightAir tempDewpointWater temp
2018-May-29 17:56N 01°17' E 104°20'614.6
2018-May-29 17:30N 01°17' E 104°13'814.3
2018-May-29 16:59N 01°15' E 104°06'613.6
2018-May-29 16:30N 01°14' E 103°60'713.1
2018-May-29 16:00N 01°12' E 103°54'612.7
2018-May-29 15:30N 01°09' E 103°48'612.5
2018-May-29 15:00N 01°05' E 103°43'611.2
2018-May-29 14:30N 01°03' E 103°38'612.8
2018-May-29 14:00N 01°07' E 103°33'612.5
2018-May-29 13:30N 01°10' E 103°27'612.0
2018-May-29 13:00N 01°13' E 103°22'712.5
2018-May-29 12:27N 01°17' E 103°17'  

Dump ship's entire track history